TimeCET,TemperatureF,Dew PointF,Humidity,Sea Level PressureIn,VisibilityMPH,Wind Direction,Wind SpeedMPH,Gust SpeedMPH,PrecipitationIn,Events,Conditions,WindDirDegrees,DateUTC
12:55 AM,21.2,-14.8,20,30.33,-9999.0,South,9.2,-,N/A,,Clear,190,2012-11-12 23:55:00
1:00 AM,22,-15,7,,6,South,9.2,,,,,190,2012-11-13 00:00:00
1:55 AM,21.2,-14.8,20,30.30,-9999.0,SSW,4.6,-,N/A,,Clear,200,2012-11-13 00:55:00
2:55 AM,23.0,-14.8,18,30.33,-9999.0,SSW,11.5,-,N/A,,Clear,200,2012-11-13 01:55:00
3:55 AM,21.2,-16.6,18,30.33,-9999.0,SE,9.2,-,N/A,,Clear,140,2012-11-13 02:55:00
4:00 AM,22,-17,7,,6,SE,9.2,,,,,140,2012-11-13 03:00:00
4:55 AM,23.0,-22.0,13,30.33,-9999.0,ENE,13.8,-,N/A,,Clear,60,2012-11-13 03:55:00
5:55 AM,24.8,-22.0,12,30.33,-9999.0,ENE,11.5,-,N/A,,Clear,70,2012-11-13 04:55:00
6:55 AM,23.0,-22.0,13,30.33,-9999.0,ENE,8.1,-,N/A,,Clear,60,2012-11-13 05:55:00
7:00 AM,24,-22,4,,25,ENE,8.1,,,,,60,2012-11-13 06:00:00
7:55 AM,23.0,-22.0,13,30.36,-9999.0,ENE,8.1,-,N/A,,Clear,60,2012-11-13 06:55:00
8:55 AM,23.0,-22.0,13,30.39,-9999.0,ENE,8.1,-,N/A,,Clear,60,2012-11-13 07:55:00
9:55 AM,24.8,-16.6,16,30.39,-9999.0,East,6.9,-,N/A,,Clear,80,2012-11-13 08:55:00
10:00 AM,24,-17,6,,47,East,6.9,,,,,80,2012-11-13 09:00:00
10:55 AM,26.6,-13.0,17,30.42,-9999.0,SSW,5.8,-,N/A,,Clear,210,2012-11-13 09:55:00
12:55 PM,26.6,-5.8,24,30.42,-9999.0,SSW,9.2,-,N/A,,Clear,210,2012-11-13 11:55:00
1:00 PM,27,-5,12,,31,SSW,9.2,,,,Clear,210,2012-11-13 12:00:00
1:55 PM,26.6,-7.6,22,30.42,-9999.0,SSW,10.4,-,N/A,,Clear,210,2012-11-13 12:55:00
2:55 PM,28.4,-9.4,19,30.42,-9999.0,SSW,9.2,-,N/A,,Clear,210,2012-11-13 13:55:00
3:55 PM,28.4,-13.0,16,30.42,-9999.0,SW,11.5,-,N/A,,Clear,230,2012-11-13 14:55:00
4:00 PM,28,-12,6,,31,SW,11.5,,,,Clear,230,2012-11-13 15:00:00
4:55 PM,28.4,-18.4,12,30.42,-9999.0,SSW,10.4,-,N/A,,Clear,200,2012-11-13 15:55:00
5:55 PM,26.6,-14.8,16,30.42,-9999.0,South,9.2,-,N/A,,Clear,190,2012-11-13 16:55:00
6:55 PM,26.6,-18.4,13,30.45,-9999.0,NNE,4.6,-,N/A,,Clear,30,2012-11-13 17:55:00
7:00 PM,26,-18,5,,6,NNE,4.6,,,,Clear,30,2012-11-13 18:00:00
7:55 PM,26.6,-22.0,11,30.45,-9999.0,East,4.6,-,N/A,,Clear,90,2012-11-13 18:55:00
8:55 PM,28.4,-20.2,11,30.45,-9999.0,ENE,6.9,-,N/A,,Clear,60,2012-11-13 19:55:00
9:55 PM,28.4,-22.0,10,30.45,-9999.0,ENE,9.2,-,N/A,,Clear,70,2012-11-13 20:55:00
10:00 PM,28,-22,4,,6,ENE,9.2,,,,,70,2012-11-13 21:00:00
10:55 PM,26.6,-22.0,11,30.45,-9999.0,NE,10.4,-,N/A,,Clear,50,2012-11-13 21:55:00
11:55 PM,28.4,-22.0,10,30.45,-9999.0,NE,8.1,-,N/A,,Clear,50,2012-11-13 22:55:00